Time;durP1;ratioP1;P1;durP2;ratioP2;P2;SDS_P1;SDS_P2;PMS_P1;PMS_P2;Temp;Humidity;BMP_temperature;BMP_pressure;BME280_temperature;BME280_humidity;BME280_pressure;Samples;Min_cycle;Max_cycle;Signal;HPM_P1;HPM_P2
2023/05/02 00:01:57;;;;;;;15.27;6.45;;;9.70;99.90;;;;;;5054084;28;20123;-82
2023/05/02 00:04:23;;;;;;;16.70;6.63;;;9.70;99.90;;;;;;5077180;28;20040;-83
2023/05/02 00:06:51;;;;;;;14.88;6.50;;;9.60;99.90;;;;;;5103791;28;20050;-83
2023/05/02 00:09:17;;;;;;;12.02;6.10;;;9.60;99.90;;;;;;5107502;28;20040;-83
2023/05/02 00:11:42;;;;;;;11.98;6.70;;;9.60;99.90;;;;;;5092052;28;20044;-84
2023/05/02 00:14:08;;;;;;;10.65;5.40;;;9.60;99.90;;;;;;5112879;28;20047;-83
2023/05/02 00:16:33;;;;;;;11.32;5.22;;;9.60;99.90;;;;;;5098552;28;20056;-83
2023/05/02 00:18:59;;;;;;;10.40;4.85;;;9.60;99.90;;;;;;5114796;28;20040;-83
2023/05/02 00:21:24;;;;;;;12.90;5.05;;;9.60;99.90;;;;;;5109838;28;20032;-83
2023/05/02 00:23:50;;;;;;;9.13;4.53;;;9.60;99.90;;;;;;5129476;28;20048;-82
2023/05/02 00:26:16;;;;;;;15.23;5.00;;;9.70;99.90;;;;;;5114338;28;20040;-82
2023/05/02 00:28:41;;;;;;;9.82;4.30;;;9.70;99.90;;;;;;5117457;28;20112;-82
2023/05/02 00:31:07;;;;;;;10.52;4.55;;;9.60;99.90;;;;;;5106560;28;20052;-83
2023/05/02 00:33:32;;;;;;;12.63;4.05;;;9.60;99.90;;;;;;5092916;28;20036;-82
2023/05/02 00:35:58;;;;;;;10.85;3.97;;;9.70;99.90;;;;;;5106752;28;20048;-82
2023/05/02 00:38:23;;;;;;;9.88;3.70;;;9.60;99.90;;;;;;5083890;28;20025;-83
2023/05/02 00:40:52;;;;;;;10.70;4.03;;;9.70;99.90;;;;;;5095576;28;20036;-82
2023/05/02 00:43:18;;;;;;;7.75;3.47;;;9.70;99.90;;;;;;5068450;28;20064;-82
2023/05/02 00:45:45;;;;;;;10.73;3.40;;;9.60;99.90;;;;;;5086929;28;20051;-82
2023/05/02 00:48:11;;;;;;;8.65;3.75;;;9.70;99.90;;;;;;5101844;28;20043;-81
2023/05/02 00:50:41;;;;;;;9.88;3.15;;;9.70;99.90;;;;;;5090277;28;20036;-82
2023/05/02 00:53:08;;;;;;;6.75;3.65;;;9.70;99.90;;;;;;5091728;28;20043;-83
2023/05/02 00:55:35;;;;;;;9.45;3.55;;;9.70;99.90;;;;;;5111914;28;20036;-82
2023/05/02 00:58:04;;;;;;;6.68;3.50;;;9.70;99.90;;;;;;5089093;28;20040;-82
2023/05/02 01:00:42;;;;;;;8.25;3.60;;;9.70;99.90;;;;;;5059643;28;20543;-82
2023/05/02 01:03:35;;;;;;;10.48;3.10;;;9.60;99.90;;;;;;5086158;28;20557;-82
2023/05/02 01:06:34;;;;;;;12.32;3.88;;;9.60;99.90;;;;;;5060186;28;20044;-82
2023/05/02 01:09:16;;;;;;;10.38;3.50;;;9.60;99.90;;;;;;5058411;28;20079;-81
2023/05/02 01:11:48;;;;;;;9.73;2.80;;;9.60;99.90;;;;;;5102158;28;20096;-82
2023/05/02 01:14:14;;;;;;;7.63;2.95;;;9.60;99.90;;;;;;5088339;28;20046;-82
2023/05/02 01:16:42;;;;;;;8.15;3.05;;;9.60;99.90;;;;;;5085444;28;20057;-81
2023/05/02 01:19:43;;;;;;;6.82;3.30;;;9.60;99.90;;;;;;5086354;28;20170;-81
2023/05/02 01:22:12;;;;;;;7.00;2.92;;;9.60;99.90;;;;;;5067241;28;20444;-81
2023/05/02 01:24:55;;;;;;;10.50;3.60;;;9.60;99.90;;;;;;5101158;28;20136;-81
2023/05/02 01:27:35;;;;;;;12.50;4.25;;;9.60;99.90;;;;;;5082769;28;20048;-80
2023/05/02 01:30:03;;;;;;;13.30;3.90;;;9.40;99.90;;;;;;5099285;28;20047;-81
2023/05/02 01:32:32;;;;;;;17.80;4.47;;;9.40;99.90;;;;;;5081314;28;20115;-82
2023/05/02 01:34:59;;;;;;;12.82;4.20;;;9.30;99.90;;;;;;5113250;28;20063;-80
2023/05/02 01:37:27;;;;;;;13.80;3.97;;;9.20;99.90;;;;;;5097233;28;20043;-82
2023/05/02 01:39:55;;;;;;;11.52;3.95;;;9.20;99.90;;;;;;5096793;28;20032;-81
2023/05/02 01:42:22;;;;;;;14.80;3.80;;;9.10;99.90;;;;;;5092824;28;20039;-82
2023/05/02 01:44:50;;;;;;;21.65;4.18;;;9.10;99.90;;;;;;5098983;28;20036;-82
2023/05/02 01:47:17;;;;;;;12.45;3.90;;;9.10;99.90;;;;;;5078360;28;20083;-83
2023/05/02 01:49:45;;;;;;;12.52;4.22;;;9.00;99.90;;;;;;5095936;28;20069;-82
2023/05/02 01:52:12;;;;;;;11.70;3.90;;;9.00;99.90;;;;;;5095963;28;20144;-81
2023/05/02 01:54:39;;;;;;;18.17;4.57;;;9.00;99.90;;;;;;5099195;28;20036;-82
2023/05/02 01:57:07;;;;;;;17.70;4.70;;;9.00;99.90;;;;;;5081263;28;20123;-83
2023/05/02 01:59:34;;;;;;;12.10;3.45;;;9.00;99.90;;;;;;5099364;28;20028;-81
2023/05/02 02:02:01;;;;;;;14.55;3.90;;;9.00;99.90;;;;;;5082451;28;20040;-80
2023/05/02 02:04:28;;;;;;;14.18;4.03;;;9.00;99.90;;;;;;5098513;28;20505;-80
2023/05/02 02:07:07;;;;;;;15.15;3.88;;;8.90;99.90;;;;;;5086503;28;20037;-80
2023/05/02 02:09:33;;;;;;;14.65;3.85;;;8.90;99.90;;;;;;5079402;28;20036;-81
2023/05/02 02:12:04;;;;;;;17.38;3.63;;;8.90;99.90;;;;;;5091154;28;20499;-81
2023/05/02 02:14:36;;;;;;;15.73;4.35;;;8.90;99.90;;;;;;5097119;28;20068;-80
2023/05/02 02:17:09;;;;;;;13.82;3.92;;;8.90;99.90;;;;;;5096543;28;20416;-81
2023/05/02 02:19:37;;;;;;;17.05;4.38;;;8.80;99.90;;;;;;5080672;28;20055;-80
2023/05/02 02:22:05;;;;;;;16.27;4.65;;;8.70;99.90;;;;;;5069426;28;20032;-81
2023/05/02 02:24:32;;;;;;;13.63;4.05;;;8.60;99.90;;;;;;5077942;28;20256;-81
2023/05/02 02:26:58;;;;;;;16.60;5.03;;;8.60;99.90;;;;;;5060876;28;20071;-79
2023/05/02 02:29:23;;;;;;;21.58;4.55;;;8.50;99.90;;;;;;5076703;28;20044;-79
2023/05/02 02:31:49;;;;;;;20.42;5.00;;;8.50;99.90;;;;;;5097967;28;20569;-81
2023/05/02 02:34:15;;;;;;;28.35;5.28;;;8.50;99.90;;;;;;5097818;28;20523;-79
2023/05/02 02:36:55;;;;;;;26.77;4.80;;;8.50;99.90;;;;;;5096762;28;20044;-81
2023/05/02 02:39:33;;;;;;;17.13;4.80;;;8.40;99.90;;;;;;5096552;28;20108;-80
2023/05/02 02:42:13;;;;;;;20.52;5.00;;;8.30;99.90;;;;;;5097244;28;20036;-81
2023/05/02 02:44:44;;;;;;;22.40;4.63;;;8.30;99.90;;;;;;5097265;28;20032;-81
2023/05/02 02:47:38;;;;;;;18.15;4.25;;;8.30;99.90;;;;;;5097183;28;20047;-80
2023/05/02 02:50:15;;;;;;;13.67;3.70;;;8.30;99.90;;;;;;5063089;28;20124;-81
2023/05/02 02:52:52;;;;;;;18.27;4.80;;;8.30;99.90;;;;;;5077373;28;20056;-80
2023/05/02 02:55:41;;;;;;;16.67;4.40;;;8.30;99.90;;;;;;5090705;28;20040;-80
2023/05/02 02:58:25;;;;;;;19.75;5.35;;;8.30;99.90;;;;;;5068433;28;20036;-81
2023/05/02 03:00:52;;;;;;;;;;;8.20;99.90;;;;;;5094163;28;20062;-81
2023/05/02 03:03:21;;;;;;;16.33;4.13;;;8.10;99.90;;;;;;5095114;28;19916;-79
2023/05/02 03:05:47;;;;;;;16.58;3.35;;;8.00;99.90;;;;;;5095828;28;20028;-79
2023/05/02 03:08:13;;;;;;;13.18;3.38;;;8.00;99.90;;;;;;5095625;28;20115;-79
2023/05/02 03:10:39;;;;;;;13.60;3.30;;;7.90;99.90;;;;;;5095698;28;20067;-79
2023/05/02 03:13:04;;;;;;;16.42;3.30;;;7.90;99.90;;;;;;5097064;28;20047;-80
2023/05/02 03:15:52;;;;;;;14.68;3.05;;;7.80;99.90;;;;;;5095406;28;20070;-79
2023/05/02 03:18:18;;;;;;;15.50;3.05;;;7.80;99.90;;;;;;5094060;28;20130;-80
2023/05/02 03:20:44;;;;;;;19.42;3.42;;;7.70;99.90;;;;;;5077926;28;20032;-80
2023/05/02 03:23:09;;;;;;;11.57;2.80;;;7.60;99.90;;;;;;5095290;28;20318;-79
2023/05/02 03:25:35;;;;;;;13.63;3.33;;;7.60;99.90;;;;;;5077680;28;20039;-80
2023/05/02 03:28:01;;;;;;;7.38;2.88;;;7.60;99.90;;;;;;5094932;28;20105;-80
2023/05/02 03:30:27;;;;;;;12.05;2.88;;;7.60;99.90;;;;;;5095190;28;20044;-80
2023/05/02 03:32:52;;;;;;;10.90;2.80;;;7.60;99.90;;;;;;5094710;28;20071;-80
2023/05/02 03:35:18;;;;;;;11.77;3.10;;;7.60;99.90;;;;;;5070342;28;20036;-80
2023/05/02 03:37:44;;;;;;;14.13;3.22;;;7.60;99.90;;;;;;5089097;28;20091;-80
2023/05/02 03:40:10;;;;;;;11.45;2.70;;;7.60;99.90;;;;;;5094861;28;20039;-80
2023/05/02 03:42:40;;;;;;;10.82;2.88;;;7.60;99.90;;;;;;5094288;28;20042;-79
2023/05/02 03:45:06;;;;;;;12.88;3.05;;;7.60;99.90;;;;;;5094465;28;20051;-80
2023/05/02 03:47:32;;;;;;;9.93;2.38;;;7.60;99.90;;;;;;5093967;28;20500;-79
2023/05/02 03:49:58;;;;;;;9.88;2.47;;;7.60;99.90;;;;;;5094488;28;20032;-80
2023/05/02 03:52:24;;;;;;;6.78;2.30;;;7.50;99.90;;;;;;5094574;28;20063;-79
2023/05/02 03:54:49;;;;;;;11.00;2.65;;;7.50;99.90;;;;;;5092903;28;20499;-80
2023/05/02 03:57:15;;;;;;;10.80;2.40;;;7.50;99.90;;;;;;5108326;28;20067;-79
2023/05/02 03:59:41;;;;;;;8.32;1.98;;;7.40;99.90;;;;;;5093176;28;20118;-79
2023/05/02 04:02:07;;;;;;;6.20;2.08;;;7.40;99.90;;;;;;5093349;28;20047;-80
2023/05/02 04:04:33;;;;;;;10.32;3.15;;;7.40;99.90;;;;;;5093586;28;20036;-81
2023/05/02 04:06:59;;;;;;;11.27;2.03;;;7.40;99.90;;;;;;5093308;28;20115;-80
2023/05/02 04:09:24;;;;;;;10.55;2.17;;;7.30;99.90;;;;;;5094071;28;20040;-80
2023/05/02 04:11:51;;;;;;;6.60;1.95;;;7.40;99.90;;;;;;5093536;28;20047;-81
2023/05/02 04:14:17;;;;;;;10.68;2.10;;;7.40;99.90;;;;;;5093129;28;20059;-79
2023/05/02 04:16:47;;;;;;;8.45;2.10;;;7.30;99.90;;;;;;5092130;28;20048;-79
2023/05/02 04:19:13;;;;;;;4.65;1.85;;;7.30;99.90;;;;;;5092667;28;20036;-80
2023/05/02 04:21:38;;;;;;;9.35;1.85;;;7.30;99.90;;;;;;5092332;28;20113;-79
2023/05/02 04:24:04;;;;;;;6.70;1.92;;;7.40;99.90;;;;;;5092853;28;20040;-80
2023/05/02 04:26:30;;;;;;;7.88;2.10;;;7.30;99.90;;;;;;5071868;28;20040;-79
2023/05/02 04:28:55;;;;;;;6.82;2.15;;;7.30;99.90;;;;;;5086114;28;20073;-78
2023/05/02 04:31:21;;;;;;;10.73;2.15;;;7.30;99.90;;;;;;5095566;28;20175;-79
2023/05/02 04:33:47;;;;;;;7.50;1.88;;;7.30;99.90;;;;;;5096545;28;20070;-79
2023/05/02 04:36:13;;;;;;;11.10;2.60;;;7.30;99.90;;;;;;5096089;28;20052;-80
2023/05/02 04:38:38;;;;;;;7.38;2.00;;;7.20;99.90;;;;;;5088538;28;20043;-79
2023/05/02 04:41:04;;;;;;;8.18;2.00;;;7.20;99.90;;;;;;5076091;28;20388;-79
2023/05/02 04:43:30;;;;;;;7.28;2.15;;;7.30;99.90;;;;;;5097272;28;20039;-80
2023/05/02 04:45:57;;;;;;;10.63;2.70;;;7.30;99.90;;;;;;5096112;28;20407;-79
2023/05/02 04:48:24;;;;;;;7.57;2.25;;;7.30;99.90;;;;;;5095314;28;20521;-79
2023/05/02 04:50:52;;;;;;;9.77;2.20;;;7.30;99.90;;;;;;5096337;28;20453;-80
2023/05/02 04:53:17;;;;;;;13.93;2.50;;;7.30;99.90;;;;;;5078293;28;20471;-79
2023/05/02 04:55:43;;;;;;;5.53;2.20;;;7.30;99.90;;;;;;5100579;28;20047;-80
2023/05/02 04:58:09;;;;;;;8.50;2.45;;;7.30;99.90;;;;;;5105035;28;20507;-79
2023/05/02 05:00:34;;;;;;;5.65;2.30;;;7.30;99.90;;;;;;5095823;28;20044;-79
2023/05/02 05:03:00;;;;;;;7.57;2.22;;;7.30;99.90;;;;;;5094875;28;20078;-79
2023/05/02 05:05:25;;;;;;;10.52;2.38;;;7.30;99.90;;;;;;5064476;28;20068;-79
2023/05/02 05:07:51;;;;;;;9.13;2.08;;;7.30;99.90;;;;;;5095447;28;20032;-79
2023/05/02 05:10:17;;;;;;;10.43;2.25;;;7.30;99.90;;;;;;5094636;28;20032;-79
2023/05/02 05:12:42;;;;;;;11.93;2.50;;;7.30;99.90;;;;;;5094551;28;20036;-79
2023/05/02 05:15:08;;;;;;;10.00;2.53;;;7.30;99.90;;;;;;5096289;28;20083;-79
2023/05/02 05:17:35;;;;;;;7.35;2.15;;;7.30;99.90;;;;;;5095276;28;20055;-79
2023/05/02 05:20:00;;;;;;;11.30;3.10;;;7.40;99.90;;;;;;5094373;28;20507;-79
2023/05/02 05:22:26;;;;;;;10.73;2.53;;;7.30;99.90;;;;;;5094624;28;20040;-80
2023/05/02 05:24:54;;;;;;;7.93;2.80;;;7.30;99.90;;;;;;5077610;28;20042;-79
2023/05/02 05:27:20;;;;;;;9.15;2.83;;;7.30;99.90;;;;;;5094304;28;20044;-79
2023/05/02 05:29:46;;;;;;;10.90;3.03;;;7.40;99.90;;;;;;5093968;28;20039;-79
2023/05/02 05:32:12;;;;;;;9.05;2.53;;;7.40;99.90;;;;;;5095843;28;20063;-79
2023/05/02 05:34:37;;;;;;;6.53;2.33;;;7.40;99.90;;;;;;5094695;28;20059;-79
2023/05/02 05:37:03;;;;;;;7.80;2.28;;;7.40;99.90;;;;;;5093915;28;20086;-79
2023/05/02 05:39:29;;;;;;;9.55;2.92;;;7.40;99.90;;;;;;5093506;28;20130;-79
2023/05/02 05:41:56;;;;;;;11.32;2.75;;;7.40;99.90;;;;;;5094376;28;20119;-79
2023/05/02 05:44:22;;;;;;;7.28;2.40;;;7.40;99.90;;;;;;5095658;28;20036;-79
2023/05/02 05:46:47;;;;;;;12.23;2.90;;;7.40;99.90;;;;;;5095572;28;20137;-79
2023/05/02 05:49:14;;;;;;;9.50;2.80;;;7.40;99.90;;;;;;5094485;28;20044;-79
2023/05/02 05:51:40;;;;;;;7.55;2.58;;;7.40;99.90;;;;;;5095585;28;20050;-79
2023/05/02 05:54:06;;;;;;;9.60;3.13;;;7.40;99.90;;;;;;5093655;28;20119;-79
2023/05/02 05:56:32;;;;;;;10.18;2.70;;;7.50;99.90;;;;;;5104819;28;20045;-79
2023/05/02 05:58:57;;;;;;;9.55;3.55;;;7.50;99.90;;;;;;5096180;28;20028;-79
2023/05/02 06:01:23;;;;;;;6.10;2.60;;;7.50;99.90;;;;;;5093048;28;20040;-79
2023/05/02 06:03:48;;;;;;;11.90;2.80;;;7.50;99.90;;;;;;5093091;28;20039;-79
2023/05/02 06:06:14;;;;;;;9.55;3.05;;;7.60;99.90;;;;;;5093089;28;20598;-80
2023/05/02 06:08:40;;;;;;;8.45;2.72;;;7.60;99.90;;;;;;5093430;28;20047;-79
2023/05/02 06:11:10;;;;;;;7.10;2.38;;;7.60;99.90;;;;;;5093043;28;20105;-79
2023/05/02 06:13:36;;;;;;;8.63;2.83;;;7.50;99.90;;;;;;5093485;28;20522;-79
2023/05/02 06:16:02;;;;;;;10.25;3.03;;;7.50;99.90;;;;;;5092954;28;20028;-80
2023/05/02 06:18:27;;;;;;;10.45;2.90;;;7.50;99.90;;;;;;5092498;28;20075;-79
2023/05/02 06:20:53;;;;;;;10.60;3.10;;;7.60;99.90;;;;;;5075675;28;20036;-79
2023/05/02 06:23:19;;;;;;;6.28;2.45;;;7.60;99.90;;;;;;5092849;28;20032;-79
2023/05/02 06:25:44;;;;;;;8.15;2.70;;;7.60;99.90;;;;;;5092574;28;20067;-79
2023/05/02 06:28:10;;;;;;;7.95;3.03;;;7.60;99.90;;;;;;5092099;28;20503;-78
2023/05/02 06:30:35;;;;;;;8.48;2.63;;;7.60;99.90;;;;;;5091780;28;20051;-78
2023/05/02 06:33:03;;;;;;;8.95;2.97;;;7.80;99.90;;;;;;5092041;28;20044;-79
2023/05/02 06:35:29;;;;;;;11.73;3.33;;;7.70;99.90;;;;;;5091905;28;20048;-78
2023/05/02 06:37:54;;;;;;;12.48;3.08;;;7.80;99.90;;;;;;5091556;28;20459;-79
2023/05/02 06:40:20;;;;;;;7.43;2.50;;;7.80;99.90;;;;;;5091840;28;20050;-79
2023/05/02 06:42:46;;;;;;;7.20;2.47;;;7.80;99.90;;;;;;5091467;28;20043;-78
2023/05/02 06:45:11;;;;;;;10.43;2.90;;;7.90;99.90;;;;;;5091392;28;20032;-79
2023/05/02 06:47:37;;;;;;;11.25;2.70;;;7.90;99.90;;;;;;5091799;28;20120;-79
2023/05/02 06:50:02;;;;;;;7.85;2.42;;;7.90;99.90;;;;;;5091344;28;20551;-79
2023/05/02 06:52:28;;;;;;;8.38;2.67;;;7.90;99.90;;;;;;5091722;28;20036;-79
2023/05/02 06:54:53;;;;;;;7.03;2.75;;;7.90;99.90;;;;;;5091419;28;20040;-80
2023/05/02 06:57:19;;;;;;;8.85;2.78;;;7.90;99.90;;;;;;5105576;28;20066;-79
2023/05/02 06:59:44;;;;;;;7.43;2.60;;;7.90;99.90;;;;;;5092930;28;20028;-78
2023/05/02 07:02:10;;;;;;;6.05;2.20;;;7.90;99.90;;;;;;5078419;28;20047;-78
2023/05/02 07:04:35;;;;;;;7.45;2.40;;;7.90;99.90;;;;;;5066967;28;20039;-80
2023/05/02 07:07:01;;;;;;;9.90;2.65;;;7.90;99.90;;;;;;5084285;28;20079;-78
2023/05/02 07:09:27;;;;;;;10.80;2.22;;;8.00;99.90;;;;;;5091152;28;20044;-79
2023/05/02 07:11:52;;;;;;;10.35;2.95;;;8.10;99.90;;;;;;5090954;28;20412;-79
2023/05/02 07:14:18;;;;;;;10.77;2.50;;;8.10;99.90;;;;;;5092101;28;20036;-79
2023/05/02 07:16:43;;;;;;;6.57;2.40;;;8.10;99.90;;;;;;5090648;28;20492;-78
2023/05/02 07:19:09;;;;;;;8.63;2.65;;;8.10;99.90;;;;;;5090837;28;20495;-79
2023/05/02 07:21:34;;;;;;;5.10;2.35;;;8.20;99.90;;;;;;5073690;28;20115;-79
2023/05/02 07:24:00;;;;;;;8.18;2.33;;;8.20;99.90;;;;;;5090738;28;20128;-79
2023/05/02 07:26:27;;;;;;;7.63;3.05;;;8.30;99.90;;;;;;5090620;28;20042;-78
2023/05/02 07:28:52;;;;;;;7.07;2.53;;;8.30;99.90;;;;;;5090595;28;20590;-79
2023/05/02 07:31:18;;;;;;;6.68;2.45;;;8.30;99.90;;;;;;5090331;28;20079;-78
2023/05/02 07:33:43;;;;;;;11.02;2.60;;;8.30;99.90;;;;;;5090922;28;20040;-78
2023/05/02 07:36:09;;;;;;;7.15;2.75;;;8.20;99.90;;;;;;5090156;28;20040;-78
2023/05/02 07:38:34;;;;;;;8.40;2.80;;;8.30;99.90;;;;;;5090487;28;20035;-79
2023/05/02 07:41:00;;;;;;;6.57;2.60;;;8.30;99.90;;;;;;5090587;28;20044;-78
2023/05/02 07:43:26;;;;;;;9.55;2.60;;;8.30;99.90;;;;;;5090257;28;20028;-78
2023/05/02 07:45:52;;;;;;;10.25;3.95;;;8.30;99.90;;;;;;5090585;28;20070;-78
2023/05/02 07:48:17;;;;;;;7.20;2.55;;;8.30;99.90;;;;;;5089943;28;20118;-79
2023/05/02 07:50:43;;;;;;;11.48;3.40;;;8.20;99.90;;;;;;5090633;28;20124;-78
2023/05/02 07:53:09;;;;;;;9.43;2.55;;;8.30;99.90;;;;;;5090128;28;20032;-78
2023/05/02 07:55:35;;;;;;;10.90;2.67;;;8.30;99.90;;;;;;5093314;28;20487;-79
2023/05/02 07:58:01;;;;;;;9.68;2.58;;;8.40;99.90;;;;;;5101061;28;20042;-80
2023/05/02 08:00:26;;;;;;;10.77;3.30;;;8.50;99.90;;;;;;5090247;28;20040;-79
2023/05/02 08:02:52;;;;;;;6.70;2.83;;;8.60;99.90;;;;;;5089633;28;20624;-78
2023/05/02 08:05:17;;;;;;;9.13;2.47;;;8.60;99.90;;;;;;5090172;28;20492;-79
2023/05/02 08:07:43;;;;;;;6.60;2.58;;;8.60;99.90;;;;;;5089993;28;20061;-79
2023/05/02 08:10:09;;;;;;;8.85;2.45;;;8.70;99.90;;;;;;5061932;28;20047;-78
2023/05/02 08:12:39;;;;;;;7.50;2.53;;;8.70;99.90;;;;;;5073231;28;20039;-78
2023/05/02 08:15:06;;;;;;;5.57;1.95;;;8.60;99.90;;;;;;5090955;28;20084;-78
2023/05/02 08:17:32;;;;;;;6.22;1.55;;;8.60;99.90;;;;;;5089808;28;20046;-79
2023/05/02 08:19:58;;;;;;;5.65;1.67;;;8.70;99.90;;;;;;5090277;28;20036;-78
2023/05/02 08:22:24;;;;;;;6.25;1.73;;;8.80;99.90;;;;;;5059143;28;20439;-78
2023/05/02 08:24:49;;;;;;;4.60;1.80;;;8.90;99.90;;;;;;5090927;28;20068;-78
2023/05/02 08:27:15;;;;;;;5.75;1.73;;;8.90;99.90;;;;;;5061023;28;20439;-78
2023/05/02 08:29:40;;;;;;;5.95;1.88;;;9.00;99.90;;;;;;5052827;28;20044;-78
2023/05/02 08:32:06;;;;;;;5.32;1.90;;;9.00;99.90;;;;;;5079392;28;20043;-78
2023/05/02 08:34:32;;;;;;;5.90;1.60;;;9.20;99.90;;;;;;5089894;28;20396;-79
2023/05/02 08:36:58;;;;;;;5.18;1.50;;;9.20;99.90;;;;;;5089816;28;20101;-79
2023/05/02 08:39:23;;;;;;;6.05;2.03;;;9.20;99.90;;;;;;5089703;28;20040;-79
2023/05/02 08:41:49;;;;;;;11.25;2.20;;;9.40;99.90;;;;;;5090063;28;20495;-78
2023/05/02 08:44:15;;;;;;;3.58;1.30;;;9.90;99.90;;;;;;5090366;28;20035;-79
2023/05/02 08:46:42;;;;;;;5.40;1.63;;;10.10;99.90;;;;;;5090400;28;20039;-79
2023/05/02 08:49:10;;;;;;;9.73;1.80;;;10.10;99.90;;;;;;5090218;28;20044;-79
2023/05/02 08:51:36;;;;;;;6.15;1.75;;;10.30;99.90;;;;;;5090010;28;20039;-79
2023/05/02 08:54:02;;;;;;;3.67;1.23;;;10.40;99.90;;;;;;5090130;28;20043;-78
2023/05/02 08:56:28;;;;;;;3.50;1.17;;;10.60;99.90;;;;;;5080292;28;20126;-79
2023/05/02 08:58:53;;;;;;;4.25;1.65;;;10.50;99.90;;;;;;5094353;28;20115;-79
2023/05/02 09:01:22;;;;;;;3.42;1.50;;;10.50;99.90;;;;;;5090693;28;20115;-79
2023/05/02 09:03:48;;;;;;;6.13;1.70;;;10.20;99.90;;;;;;5090418;28;20518;-79
2023/05/02 09:06:19;;;;;;;4.65;1.50;;;10.00;99.90;;;;;;5090689;28;20040;-79
2023/05/02 09:08:51;;;;;;;20.35;2.33;;;9.90;99.90;;;;;;5090360;28;20573;-79
2023/05/02 09:11:17;;;;;;;4.85;1.58;;;9.80;99.90;;;;;;5090146;28;20093;-78
2023/05/02 09:13:44;;;;;;;6.22;1.70;;;9.60;99.90;;;;;;5106707;28;20119;-78
2023/05/02 09:16:11;;;;;;;5.78;1.40;;;9.60;99.90;;;;;;5056522;28;20342;-78
2023/05/02 09:18:39;;;;;;;4.18;1.40;;;9.70;99.90;;;;;;5084484;28;20138;-79
2023/05/02 09:21:09;;;;;;;3.22;1.23;;;9.80;99.90;;;;;;5093370;28;20115;-79
2023/05/02 09:23:36;;;;;;;3.10;1.13;;;9.90;99.90;;;;;;5066812;28;20403;-79
2023/05/02 09:26:30;;;;;;;10.18;1.58;;;9.90;99.90;;;;;;5058224;28;20124;-79
2023/05/02 09:28:57;;;;;;;5.28;1.38;;;9.90;99.90;;;;;;5093376;28;20032;-79
2023/05/02 09:31:24;;;;;;;3.95;1.20;;;9.80;99.90;;;;;;5093703;28;20449;-79
2023/05/02 09:33:51;;;;;;;3.80;1.35;;;9.90;99.90;;;;;;5093253;28;20050;-78
2023/05/02 09:36:19;;;;;;;4.28;1.20;;;9.80;99.90;;;;;;5076054;28;20051;-79
2023/05/02 09:38:47;;;;;;;3.38;1.30;;;9.90;99.90;;;;;;5092691;28;20039;-78
2023/05/02 09:41:13;;;;;;;3.75;1.10;;;10.00;99.90;;;;;;5075644;28;20036;-79
2023/05/02 09:43:40;;;;;;;3.17;1.38;;;10.20;99.90;;;;;;5093525;28;20119;-79
2023/05/02 09:46:08;;;;;;;2.72;1.10;;;10.30;99.90;;;;;;5093459;28;20047;-79
2023/05/02 09:48:57;;;;;;;4.85;1.35;;;10.50;99.90;;;;;;5093076;28;20148;-79
2023/05/02 09:51:24;;;;;;;7.05;1.20;;;10.60;99.90;;;;;;5093268;28;20032;-79
2023/05/02 09:53:50;;;;;;;3.60;1.20;;;10.80;99.90;;;;;;5093344;28;20433;-79
2023/05/02 09:56:16;;;;;;;2.72;1.20;;;11.10;99.90;;;;;;5101890;28;20130;-78
2023/05/02 09:58:41;;;;;;;2.05;0.80;;;10.90;99.90;;;;;;5098393;28;20107;-79
2023/05/02 10:01:12;;;;;;;3.30;0.80;;;10.60;99.90;;;;;;5092529;28;20124;-78
2023/05/02 10:03:40;;;;;;;3.80;0.80;;;10.50;99.90;;;;;;5092837;28;20032;-78
2023/05/02 10:06:07;;;;;;;3.75;1.00;;;10.40;99.90;;;;;;5082383;28;20505;-79
2023/05/02 10:08:34;;;;;;;3.65;0.90;;;10.30;99.90;;;;;;5102332;28;20032;-79
2023/05/02 10:11:04;;;;;;;4.55;1.05;;;10.10;99.90;;;;;;5092850;28;20044;-78
2023/05/02 10:13:31;;;;;;;3.05;0.93;;;10.70;99.90;;;;;;5093266;28;20043;-78
2023/05/02 10:16:02;;;;;;;1.85;1.00;;;10.90;99.90;;;;;;5092792;28;20044;-78
2023/05/02 10:18:41;;;;;;;4.90;1.48;;;11.00;99.90;;;;;;5066398;28;20393;-79
2023/05/02 10:21:10;;;;;;;3.95;1.20;;;11.00;99.90;;;;;;5089616;28;20074;-79
2023/05/02 10:23:40;;;;;;;3.45;1.20;;;10.70;99.90;;;;;;5092437;28;20032;-79
2023/05/02 10:26:06;;;;;;;6.18;1.48;;;10.70;99.90;;;;;;5092059;28;20511;-79
2023/05/02 10:28:32;;;;;;;2.67;1.10;;;10.60;99.90;;;;;;5092480;28;20043;-80
2023/05/02 10:31:00;;;;;;;5.57;1.30;;;10.50;99.90;;;;;;5092056;28;20097;-78
2023/05/02 10:33:27;;;;;;;5.00;1.25;;;10.50;99.90;;;;;;5092116;28;20119;-80
2023/05/02 10:35:52;;;;;;;6.25;1.20;;;10.70;99.90;;;;;;5092625;28;20411;-79
2023/05/02 10:38:20;;;;;;;4.53;1.10;;;10.60;99.90;;;;;;5056010;28;20033;-79
2023/05/02 10:40:54;;;;;;;7.55;1.40;;;10.50;99.90;;;;;;5083323;28;20032;-79
2023/05/02 10:43:26;;;;;;;3.90;1.08;;;10.40;99.90;;;;;;5092349;28;20047;-79
2023/05/02 10:45:53;;;;;;;5.15;1.13;;;10.50;99.90;;;;;;5092146;28;20127;-79
2023/05/02 10:48:24;;;;;;;5.82;1.23;;;10.40;99.90;;;;;;5076489;28;20072;-79
2023/05/02 10:50:55;;;;;;;5.07;1.30;;;10.50;99.90;;;;;;5095122;28;20042;-77
2023/05/02 10:53:26;;;;;;;7.38;1.20;;;10.70;99.90;;;;;;5094958;28;20055;-78
2023/05/02 10:56:15;;;;;;;2.30;1.13;;;10.80;99.90;;;;;;5099885;28;20541;-81
2023/05/02 10:58:45;;;;;;;3.00;1.10;;;10.70;99.90;;;;;;5099101;28;20119;-79
2023/05/02 11:01:31;;;;;;;6.40;1.27;;;11.00;99.90;;;;;;5069433;28;20044;-79
2023/05/02 11:04:01;;;;;;;5.88;1.50;;;11.40;99.90;;;;;;5089000;28;20036;-78
2023/05/02 11:06:29;;;;;;;5.43;1.35;;;11.70;99.90;;;;;;5093300;28;20089;-78
2023/05/02 11:09:20;;;;;;;4.70;1.20;;;11.60;99.90;;;;;;5092635;28;20479;-79
2023/05/02 11:11:48;;;;;;;6.38;1.40;;;11.40;99.90;;;;;;5094168;28;20036;-79
2023/05/02 11:14:41;;;;;;;6.47;1.50;;;11.10;99.90;;;;;;5093186;28;20074;-80
2023/05/02 11:17:08;;;;;;;5.57;1.65;;;10.80;99.90;;;;;;5094609;28;20072;-80
2023/05/02 11:19:36;;;;;;;4.90;1.50;;;10.60;99.90;;;;;;5094455;28;20608;-79
2023/05/02 11:22:20;;;;;;;6.10;1.50;;;10.50;99.90;;;;;;5094159;28;20508;-79
2023/05/02 11:24:46;;;;;;;;;;;10.40;99.90;;;;;;5096972;28;20165;-79
2023/05/02 11:27:32;;;;;;;4.88;1.20;;;10.40;99.90;;;;;;5112300;28;19920;-80
2023/05/02 11:30:04;;;;;;;3.63;1.00;;;10.60;99.90;;;;;;5071593;28;20090;-79
2023/05/02 11:32:48;;;;;;;3.08;1.10;;;10.60;99.90;;;;;;5074746;28;20047;-79
2023/05/02 11:35:14;;;;;;;;;;;10.70;99.90;;;;;;5082612;28;20635;-80
2023/05/02 11:37:39;;;;;;;6.22;1.23;;;10.50;99.90;;;;;;5092146;28;19928;-80
2023/05/02 11:40:14;;;;;;;5.05;1.10;;;10.40;99.90;;;;;;5092042;28;20036;-79
2023/05/02 11:42:40;;;;;;;4.65;1.15;;;10.30;99.90;;;;;;5092121;28;20399;-79
2023/05/02 11:45:06;;;;;;;2.42;1.00;;;10.30;99.90;;;;;;5091932;28;20061;-76
2023/05/02 11:47:32;;;;;;;3.30;1.20;;;10.40;99.90;;;;;;5092239;28;20080;-79
2023/05/02 11:50:01;;;;;;;4.47;1.13;;;10.60;99.90;;;;;;5093368;28;20046;-79
2023/05/02 11:52:26;;;;;;;2.20;1.10;;;10.70;99.90;;;;;;5066163;28;20073;-79
2023/05/02 11:54:55;;;;;;;5.28;1.10;;;10.80;99.90;;;;;;5088636;28;20093;-79
2023/05/02 11:57:22;;;;;;;4.43;1.13;;;10.90;99.90;;;;;;5109111;28;20044;-80
2023/05/02 11:59:52;;;;;;;3.58;0.90;;;10.90;99.90;;;;;;5092733;28;20062;-79
2023/05/02 12:02:19;;;;;;;2.10;0.70;;;10.90;99.90;;;;;;5094145;28;20419;-81
2023/05/02 12:04:45;;;;;;;3.35;1.10;;;10.90;99.90;;;;;;5079127;28;20036;-80
2023/05/02 12:07:11;;;;;;;2.67;0.70;;;10.90;99.90;;;;;;5095179;28;20047;-81
2023/05/02 12:09:51;;;;;;;3.28;0.80;;;11.00;99.90;;;;;;5093927;28;20411;-79
2023/05/02 12:12:23;;;;;;;3.47;0.82;;;11.10;99.90;;;;;;5062523;28;20032;-80
2023/05/02 12:14:49;;;;;;;3.80;0.82;;;11.00;99.90;;;;;;5099178;28;20096;-80
2023/05/02 12:17:15;;;;;;;5.38;1.13;;;10.80;99.90;;;;;;5098866;28;20089;-80
2023/05/02 12:19:41;;;;;;;7.50;1.13;;;10.70;99.90;;;;;;5098443;28;20042;-82
2023/05/02 12:22:08;;;;;;;2.85;0.93;;;10.70;99.90;;;;;;5067255;28;20518;-81
2023/05/02 12:24:35;;;;;;;4.22;1.10;;;10.80;99.90;;;;;;5079625;28;20048;-81
2023/05/02 12:27:12;;;;;;;3.13;0.90;;;10.80;99.90;;;;;;5084963;28;20040;-81
2023/05/02 12:29:46;;;;;;;3.40;1.10;;;10.60;99.90;;;;;;5094435;28;20039;-80
2023/05/02 12:32:12;;;;;;;3.08;0.80;;;10.70;99.90;;;;;;5095747;28;20123;-82
2023/05/02 12:34:39;;;;;;;2.97;0.75;;;10.70;99.90;;;;;;5096574;28;20135;-81
2023/05/02 12:37:06;;;;;;;3.03;0.70;;;10.70;99.90;;;;;;5098532;28;20036;-81
2023/05/02 12:39:35;;;;;;;2.47;0.70;;;10.70;99.90;;;;;;5098150;28;20441;-80
2023/05/02 12:42:11;;;;;;;3.25;0.57;;;10.80;99.90;;;;;;5100431;28;20036;-81
2023/05/02 12:44:42;;;;;;;3.80;0.60;;;10.80;99.90;;;;;;5101351;28;20051;-81
2023/05/02 12:47:13;;;;;;;2.85;0.60;;;10.80;99.90;;;;;;5101047;28;20072;-80
2023/05/02 12:49:58;;;;;;;2.65;0.80;;;10.80;99.90;;;;;;5116974;28;20046;-81
2023/05/02 12:52:46;;;;;;;2.40;0.55;;;10.80;99.90;;;;;;5104264;28;20047;-81
2023/05/02 12:55:23;;;;;;;1.88;0.60;;;10.80;99.90;;;;;;5067770;28;20060;-80
2023/05/02 12:57:59;;;;;;;3.83;0.85;;;10.90;99.90;;;;;;5095669;28;20036;-81